sensor_id;sensor_type;location;lat;lon;timestamp;temperature;humidity
14993;DHT22;7592;51.088;13.732;2024-01-30T00:02:41;5.00;99.90
14993;DHT22;7592;51.088;13.732;2024-01-30T00:07:35;4.90;99.90
14993;DHT22;7592;51.088;13.732;2024-01-30T00:12:27;4.90;99.90
14993;DHT22;7592;51.088;13.732;2024-01-30T00:17:19;4.80;99.90
14993;DHT22;7592;51.088;13.732;2024-01-30T00:22:12;4.90;99.90
14993;DHT22;7592;51.088;13.732;2024-01-30T00:27:04;4.90;99.90
14993;DHT22;7592;51.088;13.732;2024-01-30T00:31:57;4.90;99.90
14993;DHT22;7592;51.088;13.732;2024-01-30T00:36:49;4.90;99.90
14993;DHT22;7592;51.088;13.732;2024-01-30T00:41:41;4.80;99.90
14993;DHT22;7592;51.088;13.732;2024-01-30T00:46:33;4.80;99.90
14993;DHT22;7592;51.088;13.732;2024-01-30T00:51:25;4.70;99.90
14993;DHT22;7592;51.088;13.732;2024-01-30T00:56:18;4.70;99.90
14993;DHT22;7592;51.088;13.732;2024-01-30T01:01:11;4.80;99.90
14993;DHT22;7592;51.088;13.732;2024-01-30T01:06:03;4.70;99.90
14993;DHT22;7592;51.088;13.732;2024-01-30T01:10:57;4.70;99.90
14993;DHT22;7592;51.088;13.732;2024-01-30T01:15:49;4.60;99.90
14993;DHT22;7592;51.088;13.732;2024-01-30T01:20:41;4.70;99.90
14993;DHT22;7592;51.088;13.732;2024-01-30T01:25:33;4.60;99.90
14993;DHT22;7592;51.088;13.732;2024-01-30T01:30:25;4.60;99.90
14993;DHT22;7592;51.088;13.732;2024-01-30T01:35:24;4.60;99.90
14993;DHT22;7592;51.088;13.732;2024-01-30T01:40:17;4.60;99.90
14993;DHT22;7592;51.088;13.732;2024-01-30T01:45:09;4.60;99.90
14993;DHT22;7592;51.088;13.732;2024-01-30T01:50:02;4.60;99.90
14993;DHT22;7592;51.088;13.732;2024-01-30T01:54:55;4.50;99.90
14993;DHT22;7592;51.088;13.732;2024-01-30T01:59:47;4.50;99.90
14993;DHT22;7592;51.088;13.732;2024-01-30T02:04:40;4.50;99.90
14993;DHT22;7592;51.088;13.732;2024-01-30T02:09:33;4.40;99.90
14993;DHT22;7592;51.088;13.732;2024-01-30T02:14:25;4.50;99.90
14993;DHT22;7592;51.088;13.732;2024-01-30T02:19:21;4.50;99.90
14993;DHT22;7592;51.088;13.732;2024-01-30T02:24:13;4.40;99.90
14993;DHT22;7592;51.088;13.732;2024-01-30T02:29:05;4.40;99.90
14993;DHT22;7592;51.088;13.732;2024-01-30T02:33:57;4.40;99.90
14993;DHT22;7592;51.088;13.732;2024-01-30T02:38:50;4.40;99.90
14993;DHT22;7592;51.088;13.732;2024-01-30T02:43:42;4.40;99.90
14993;DHT22;7592;51.088;13.732;2024-01-30T02:48:34;4.30;99.90
14993;DHT22;7592;51.088;13.732;2024-01-30T02:53:26;4.30;99.90
14993;DHT22;7592;51.088;13.732;2024-01-30T02:58:18;4.30;99.90
14993;DHT22;7592;51.088;13.732;2024-01-30T03:03:11;4.20;99.90
14993;DHT22;7592;51.088;13.732;2024-01-30T03:08:04;4.20;99.90
14993;DHT22;7592;51.088;13.732;2024-01-30T03:12:57;4.20;99.90
14993;DHT22;7592;51.088;13.732;2024-01-30T03:17:49;4.20;99.90
14993;DHT22;7592;51.088;13.732;2024-01-30T03:22:41;4.10;99.90
14993;DHT22;7592;51.088;13.732;2024-01-30T03:27:33;4.00;99.90
14993;DHT22;7592;51.088;13.732;2024-01-30T03:32:26;4.10;99.90
14993;DHT22;7592;51.088;13.732;2024-01-30T03:37:19;4.10;99.90
14993;DHT22;7592;51.088;13.732;2024-01-30T03:42:11;4.00;99.90
14993;DHT22;7592;51.088;13.732;2024-01-30T03:47:03;3.90;99.90
14993;DHT22;7592;51.088;13.732;2024-01-30T03:51:55;4.00;99.90
14993;DHT22;7592;51.088;13.732;2024-01-30T03:56:47;3.90;99.90
14993;DHT22;7592;51.088;13.732;2024-01-30T04:01:40;3.90;99.90
14993;DHT22;7592;51.088;13.732;2024-01-30T04:06:32;3.70;99.90
14993;DHT22;7592;51.088;13.732;2024-01-30T04:11:25;3.60;99.90
14993;DHT22;7592;51.088;13.732;2024-01-30T04:16:21;3.70;99.90
14993;DHT22;7592;51.088;13.732;2024-01-30T04:21:16;3.70;99.90
14993;DHT22;7592;51.088;13.732;2024-01-30T04:26:08;3.60;99.90
14993;DHT22;7592;51.088;13.732;2024-01-30T04:31:00;3.70;99.90
14993;DHT22;7592;51.088;13.732;2024-01-30T04:35:52;3.60;99.90
14993;DHT22;7592;51.088;13.732;2024-01-30T04:40:44;3.80;99.90
14993;DHT22;7592;51.088;13.732;2024-01-30T04:45:36;3.70;99.90
14993;DHT22;7592;51.088;13.732;2024-01-30T04:50:28;3.70;99.90
14993;DHT22;7592;51.088;13.732;2024-01-30T04:55:21;3.80;99.90
14993;DHT22;7592;51.088;13.732;2024-01-30T05:00:14;3.80;99.90
14993;DHT22;7592;51.088;13.732;2024-01-30T05:05:07;3.70;99.90
14993;DHT22;7592;51.088;13.732;2024-01-30T05:10:00;3.70;99.90
14993;DHT22;7592;51.088;13.732;2024-01-30T05:14:56;3.60;99.90
14993;DHT22;7592;51.088;13.732;2024-01-30T05:19:48;3.70;99.90
14993;DHT22;7592;51.088;13.732;2024-01-30T05:24:41;3.60;99.90
14993;DHT22;7592;51.088;13.732;2024-01-30T05:29:34;3.70;99.90
14993;DHT22;7592;51.088;13.732;2024-01-30T05:34:26;3.70;99.90
14993;DHT22;7592;51.088;13.732;2024-01-30T05:39:18;3.80;99.90
14993;DHT22;7592;51.088;13.732;2024-01-30T05:44:11;3.80;99.90
14993;DHT22;7592;51.088;13.732;2024-01-30T05:49:03;3.80;99.90
14993;DHT22;7592;51.088;13.732;2024-01-30T05:53:55;3.70;99.90
14993;DHT22;7592;51.088;13.732;2024-01-30T05:58:47;3.60;99.90
14993;DHT22;7592;51.088;13.732;2024-01-30T06:03:39;3.80;99.90
14993;DHT22;7592;51.088;13.732;2024-01-30T06:08:32;3.80;99.90
14993;DHT22;7592;51.088;13.732;2024-01-30T06:13:24;3.80;99.90
14993;DHT22;7592;51.088;13.732;2024-01-30T06:18:17;3.90;99.90
14993;DHT22;7592;51.088;13.732;2024-01-30T06:23:09;3.90;99.90
14993;DHT22;7592;51.088;13.732;2024-01-30T06:28:01;3.90;99.90
14993;DHT22;7592;51.088;13.732;2024-01-30T06:32:53;3.90;99.90
14993;DHT22;7592;51.088;13.732;2024-01-30T06:37:46;3.90;99.90
14993;DHT22;7592;51.088;13.732;2024-01-30T06:42:38;3.90;99.90
14993;DHT22;7592;51.088;13.732;2024-01-30T06:47:30;4.00;99.90
14993;DHT22;7592;51.088;13.732;2024-01-30T06:52:23;4.00;99.90
14993;DHT22;7592;51.088;13.732;2024-01-30T06:57:15;4.10;99.90
14993;DHT22;7592;51.088;13.732;2024-01-30T07:02:07;4.10;99.90
14993;DHT22;7592;51.088;13.732;2024-01-30T07:07:00;4.20;99.90
14993;DHT22;7592;51.088;13.732;2024-01-30T07:11:53;4.20;99.90
14993;DHT22;7592;51.088;13.732;2024-01-30T07:16:47;4.40;99.90
14993;DHT22;7592;51.088;13.732;2024-01-30T07:21:39;4.50;99.90
14993;DHT22;7592;51.088;13.732;2024-01-30T07:26:32;4.60;99.90
14993;DHT22;7592;51.088;13.732;2024-01-30T07:31:24;4.60;99.90
14993;DHT22;7592;51.088;13.732;2024-01-30T07:36:19;4.80;99.90
14993;DHT22;7592;51.088;13.732;2024-01-30T07:41:11;5.00;99.90
14993;DHT22;7592;51.088;13.732;2024-01-30T07:46:05;5.20;99.90
14993;DHT22;7592;51.088;13.732;2024-01-30T07:50:58;5.30;99.90
14993;DHT22;7592;51.088;13.732;2024-01-30T07:56:03;5.50;99.90
14993;DHT22;7592;51.088;13.732;2024-01-30T08:00:56;6.30;99.90
14993;DHT22;7592;51.088;13.732;2024-01-30T08:05:50;7.50;99.90
14993;DHT22;7592;51.088;13.732;2024-01-30T08:10:43;8.30;99.90
14993;DHT22;7592;51.088;13.732;2024-01-30T08:15:35;8.30;99.90
14993;DHT22;7592;51.088;13.732;2024-01-30T08:20:27;8.00;99.90
14993;DHT22;7592;51.088;13.732;2024-01-30T08:25:19;7.90;99.90
14993;DHT22;7592;51.088;13.732;2024-01-30T08:30:12;7.90;99.90
14993;DHT22;7592;51.088;13.732;2024-01-30T08:35:04;7.40;99.90
14993;DHT22;7592;51.088;13.732;2024-01-30T08:39:58;7.40;99.90
14993;DHT22;7592;51.088;13.732;2024-01-30T08:44:51;7.30;99.90
14993;DHT22;7592;51.088;13.732;2024-01-30T08:49:45;7.40;99.90
14993;DHT22;7592;51.088;13.732;2024-01-30T08:54:37;7.90;99.90
14993;DHT22;7592;51.088;13.732;2024-01-30T08:59:30;9.10;99.90
14993;DHT22;7592;51.088;13.732;2024-01-30T09:04:22;9.60;99.90
14993;DHT22;7592;51.088;13.732;2024-01-30T09:09:17;9.50;99.90
14993;DHT22;7592;51.088;13.732;2024-01-30T09:14:09;9.30;99.90
14993;DHT22;7592;51.088;13.732;2024-01-30T09:19:01;9.40;99.90
14993;DHT22;7592;51.088;13.732;2024-01-30T09:24:03;9.70;99.90
14993;DHT22;7592;51.088;13.732;2024-01-30T09:28:58;9.30;99.90
14993;DHT22;7592;51.088;13.732;2024-01-30T09:33:50;9.10;99.90
14993;DHT22;7592;51.088;13.732;2024-01-30T09:38:43;9.50;99.90
14993;DHT22;7592;51.088;13.732;2024-01-30T09:43:35;10.30;99.90
14993;DHT22;7592;51.088;13.732;2024-01-30T09:48:30;10.00;99.90
14993;DHT22;7592;51.088;13.732;2024-01-30T09:53:22;10.50;99.90
14993;DHT22;7592;51.088;13.732;2024-01-30T09:58:15;9.60;99.90
14993;DHT22;7592;51.088;13.732;2024-01-30T10:03:07;9.60;99.90
14993;DHT22;7592;51.088;13.732;2024-01-30T10:07:59;9.40;99.90
14993;DHT22;7592;51.088;13.732;2024-01-30T10:12:51;9.30;99.90
14993;DHT22;7592;51.088;13.732;2024-01-30T10:17:45;9.60;99.90
14993;DHT22;7592;51.088;13.732;2024-01-30T10:22:39;9.90;99.90
14993;DHT22;7592;51.088;13.732;2024-01-30T10:27:31;10.40;99.90
14993;DHT22;7592;51.088;13.732;2024-01-30T10:32:23;11.70;99.90
14993;DHT22;7592;51.088;13.732;2024-01-30T10:37:19;10.60;99.90
14993;DHT22;7592;51.088;13.732;2024-01-30T10:42:15;10.20;99.90
14993;DHT22;7592;51.088;13.732;2024-01-30T10:47:12;10.30;99.90
14993;DHT22;7592;51.088;13.732;2024-01-30T10:52:06;11.40;99.90
14993;DHT22;7592;51.088;13.732;2024-01-30T10:57:00;11.30;99.90
14993;DHT22;7592;51.088;13.732;2024-01-30T11:01:54;10.70;99.90
14993;DHT22;7592;51.088;13.732;2024-01-30T11:06:49;11.10;99.90
14993;DHT22;7592;51.088;13.732;2024-01-30T11:11:52;11.10;99.90
14993;DHT22;7592;51.088;13.732;2024-01-30T11:16:49;10.70;99.90
14993;DHT22;7592;51.088;13.732;2024-01-30T11:21:42;10.40;99.90
14993;DHT22;7592;51.088;13.732;2024-01-30T11:26:34;9.30;99.90
14993;DHT22;7592;51.088;13.732;2024-01-30T11:31:27;9.40;99.90
14993;DHT22;7592;51.088;13.732;2024-01-30T11:36:23;9.50;99.90
14993;DHT22;7592;51.088;13.732;2024-01-30T11:41:16;8.90;99.90
14993;DHT22;7592;51.088;13.732;2024-01-30T11:46:08;8.40;99.90
14993;DHT22;7592;51.088;13.732;2024-01-30T11:51:01;8.70;99.90
14993;DHT22;7592;51.088;13.732;2024-01-30T11:55:54;8.80;99.90
14993;DHT22;7592;51.088;13.732;2024-01-30T12:00:56;8.70;99.90
14993;DHT22;7592;51.088;13.732;2024-01-30T12:05:55;8.20;99.90
14993;DHT22;7592;51.088;13.732;2024-01-30T12:10:58;8.30;99.90
14993;DHT22;7592;51.088;13.732;2024-01-30T12:15:51;8.30;99.90
14993;DHT22;7592;51.088;13.732;2024-01-30T12:20:43;8.40;99.90
14993;DHT22;7592;51.088;13.732;2024-01-30T12:25:36;8.30;99.90
14993;DHT22;7592;51.088;13.732;2024-01-30T12:30:29;8.00;99.90
14993;DHT22;7592;51.088;13.732;2024-01-30T12:35:23;8.20;99.90
14993;DHT22;7592;51.088;13.732;2024-01-30T12:40:16;8.30;99.90
14993;DHT22;7592;51.088;13.732;2024-01-30T12:45:09;8.50;99.90
14993;DHT22;7592;51.088;13.732;2024-01-30T12:50:01;8.50;99.90
14993;DHT22;7592;51.088;13.732;2024-01-30T12:54:55;8.40;99.90
14993;DHT22;7592;51.088;13.732;2024-01-30T12:59:48;8.10;99.90
14993;DHT22;7592;51.088;13.732;2024-01-30T13:04:41;7.90;99.90
14993;DHT22;7592;51.088;13.732;2024-01-30T13:09:36;7.90;99.90
14993;DHT22;7592;51.088;13.732;2024-01-30T13:14:29;8.00;99.90
14993;DHT22;7592;51.088;13.732;2024-01-30T13:19:21;7.80;99.90
14993;DHT22;7592;51.088;13.732;2024-01-30T13:24:14;8.00;99.90
14993;DHT22;7592;51.088;13.732;2024-01-30T13:29:06;8.00;99.90
14993;DHT22;7592;51.088;13.732;2024-01-30T13:33:58;8.00;99.90
14993;DHT22;7592;51.088;13.732;2024-01-30T13:38:51;8.00;99.90
14993;DHT22;7592;51.088;13.732;2024-01-30T13:43:44;7.90;99.90
14993;DHT22;7592;51.088;13.732;2024-01-30T13:48:36;7.90;99.90
14993;DHT22;7592;51.088;13.732;2024-01-30T13:53:28;8.00;99.90
14993;DHT22;7592;51.088;13.732;2024-01-30T13:58:21;7.80;99.90
14993;DHT22;7592;51.088;13.732;2024-01-30T14:03:13;7.70;99.90
14993;DHT22;7592;51.088;13.732;2024-01-30T14:08:05;7.30;99.90
14993;DHT22;7592;51.088;13.732;2024-01-30T14:12:58;7.20;99.90
14993;DHT22;7592;51.088;13.732;2024-01-30T14:17:50;7.10;99.90
14993;DHT22;7592;51.088;13.732;2024-01-30T14:22:42;7.00;99.90
14993;DHT22;7592;51.088;13.732;2024-01-30T14:27:35;7.10;99.90
14993;DHT22;7592;51.088;13.732;2024-01-30T14:32:27;6.80;99.90
14993;DHT22;7592;51.088;13.732;2024-01-30T14:37:21;6.80;99.90
14993;DHT22;7592;51.088;13.732;2024-01-30T14:42:13;6.70;99.90
14993;DHT22;7592;51.088;13.732;2024-01-30T14:47:06;6.70;99.90
14993;DHT22;7592;51.088;13.732;2024-01-30T14:51:58;6.60;99.90
14993;DHT22;7592;51.088;13.732;2024-01-30T14:56:50;6.40;99.90
14993;DHT22;7592;51.088;13.732;2024-01-30T15:01:43;6.20;99.90
14993;DHT22;7592;51.088;13.732;2024-01-30T15:06:37;6.10;99.90
14993;DHT22;7592;51.088;13.732;2024-01-30T15:11:29;6.00;99.90
14993;DHT22;7592;51.088;13.732;2024-01-30T15:16:22;5.80;99.90
14993;DHT22;7592;51.088;13.732;2024-01-30T15:21:15;5.70;99.90
14993;DHT22;7592;51.088;13.732;2024-01-30T15:26:12;5.50;99.90
14993;DHT22;7592;51.088;13.732;2024-01-30T15:31:05;5.50;99.90
14993;DHT22;7592;51.088;13.732;2024-01-30T15:36:01;5.40;99.90
14993;DHT22;7592;51.088;13.732;2024-01-30T15:40:53;5.20;99.90
14993;DHT22;7592;51.088;13.732;2024-01-30T15:45:46;5.00;99.90
14993;DHT22;7592;51.088;13.732;2024-01-30T15:50:39;4.90;99.90
14993;DHT22;7592;51.088;13.732;2024-01-30T15:55:31;4.90;99.90
14993;DHT22;7592;51.088;13.732;2024-01-30T16:00:23;4.80;99.90
14993;DHT22;7592;51.088;13.732;2024-01-30T16:05:15;4.70;99.90
14993;DHT22;7592;51.088;13.732;2024-01-30T16:10:08;4.70;99.90
14993;DHT22;7592;51.088;13.732;2024-01-30T16:15:04;4.70;99.90
14993;DHT22;7592;51.088;13.732;2024-01-30T16:19:56;4.70;99.90
14993;DHT22;7592;51.088;13.732;2024-01-30T16:24:48;4.60;99.90
14993;DHT22;7592;51.088;13.732;2024-01-30T16:29:41;4.60;99.90
14993;DHT22;7592;51.088;13.732;2024-01-30T16:34:33;4.60;99.90
14993;DHT22;7592;51.088;13.732;2024-01-30T16:39:28;4.60;99.90
14993;DHT22;7592;51.088;13.732;2024-01-30T16:44:20;4.60;99.90
14993;DHT22;7592;51.088;13.732;2024-01-30T16:49:12;4.70;99.90
14993;DHT22;7592;51.088;13.732;2024-01-30T16:54:04;4.60;99.90
14993;DHT22;7592;51.088;13.732;2024-01-30T16:58:56;4.50;99.90
14993;DHT22;7592;51.088;13.732;2024-01-30T17:03:48;4.50;99.90
14993;DHT22;7592;51.088;13.732;2024-01-30T17:08:40;4.60;99.90
14993;DHT22;7592;51.088;13.732;2024-01-30T17:13:33;4.60;99.90
14993;DHT22;7592;51.088;13.732;2024-01-30T17:18:25;4.50;99.90
14993;DHT22;7592;51.088;13.732;2024-01-30T17:23:17;4.50;99.90
14993;DHT22;7592;51.088;13.732;2024-01-30T17:28:09;4.40;99.90
14993;DHT22;7592;51.088;13.732;2024-01-30T17:33:02;4.30;99.90
14993;DHT22;7592;51.088;13.732;2024-01-30T17:37:54;4.30;99.90
14993;DHT22;7592;51.088;13.732;2024-01-30T17:42:46;4.20;99.90
14993;DHT22;7592;51.088;13.732;2024-01-30T17:47:38;4.20;99.90
14993;DHT22;7592;51.088;13.732;2024-01-30T17:52:31;4.20;99.90
14993;DHT22;7592;51.088;13.732;2024-01-30T17:57:23;4.20;99.90
14993;DHT22;7592;51.088;13.732;2024-01-30T18:02:15;4.10;99.90
14993;DHT22;7592;51.088;13.732;2024-01-30T18:07:08;4.20;99.90
14993;DHT22;7592;51.088;13.732;2024-01-30T18:12:00;4.10;99.90
14993;DHT22;7592;51.088;13.732;2024-01-30T18:16:53;4.10;99.90
14993;DHT22;7592;51.088;13.732;2024-01-30T18:21:45;4.10;99.90
14993;DHT22;7592;51.088;13.732;2024-01-30T18:26:37;4.00;99.90
14993;DHT22;7592;51.088;13.732;2024-01-30T18:31:29;4.00;99.90
14993;DHT22;7592;51.088;13.732;2024-01-30T18:36:22;4.00;99.90
14993;DHT22;7592;51.088;13.732;2024-01-30T18:41:15;3.90;99.90
14993;DHT22;7592;51.088;13.732;2024-01-30T18:46:08;3.90;99.90
14993;DHT22;7592;51.088;13.732;2024-01-30T18:51:00;3.90;99.90
14993;DHT22;7592;51.088;13.732;2024-01-30T18:55:52;3.80;99.90
14993;DHT22;7592;51.088;13.732;2024-01-30T19:00:45;3.80;99.90
14993;DHT22;7592;51.088;13.732;2024-01-30T19:05:40;3.80;99.90
14993;DHT22;7592;51.088;13.732;2024-01-30T19:10:32;3.80;99.90
14993;DHT22;7592;51.088;13.732;2024-01-30T19:15:34;3.80;99.90
14993;DHT22;7592;51.088;13.732;2024-01-30T19:20:27;3.80;99.90
14993;DHT22;7592;51.088;13.732;2024-01-30T19:25:19;3.80;99.90
14993;DHT22;7592;51.088;13.732;2024-01-30T19:30:11;3.80;99.90
14993;DHT22;7592;51.088;13.732;2024-01-30T19:35:04;3.80;99.90
14993;DHT22;7592;51.088;13.732;2024-01-30T19:39:58;3.80;99.90
14993;DHT22;7592;51.088;13.732;2024-01-30T19:44:50;3.80;99.90
14993;DHT22;7592;51.088;13.732;2024-01-30T19:49:43;3.80;99.90
14993;DHT22;7592;51.088;13.732;2024-01-30T19:54:35;3.80;99.90
14993;DHT22;7592;51.088;13.732;2024-01-30T19:59:28;3.90;99.90
14993;DHT22;7592;51.088;13.732;2024-01-30T20:04:20;3.90;99.90
14993;DHT22;7592;51.088;13.732;2024-01-30T20:09:13;3.90;99.90
14993;DHT22;7592;51.088;13.732;2024-01-30T20:14:05;3.90;99.90
14993;DHT22;7592;51.088;13.732;2024-01-30T20:18:57;3.90;99.90
14993;DHT22;7592;51.088;13.732;2024-01-30T20:23:51;3.80;99.90
14993;DHT22;7592;51.088;13.732;2024-01-30T20:28:43;3.80;99.90
14993;DHT22;7592;51.088;13.732;2024-01-30T20:33:35;3.90;99.90
14993;DHT22;7592;51.088;13.732;2024-01-30T20:38:29;4.00;99.90
14993;DHT22;7592;51.088;13.732;2024-01-30T20:43:21;3.90;99.90
14993;DHT22;7592;51.088;13.732;2024-01-30T20:48:13;3.90;99.90
14993;DHT22;7592;51.088;13.732;2024-01-30T20:53:06;3.80;99.90
14993;DHT22;7592;51.088;13.732;2024-01-30T20:57:58;3.70;99.90
14993;DHT22;7592;51.088;13.732;2024-01-30T21:02:50;3.70;99.90
14993;DHT22;7592;51.088;13.732;2024-01-30T21:07:42;3.60;99.90
14993;DHT22;7592;51.088;13.732;2024-01-30T21:12:34;3.60;99.90
14993;DHT22;7592;51.088;13.732;2024-01-30T21:17:27;3.60;99.90
14993;DHT22;7592;51.088;13.732;2024-01-30T21:22:19;3.50;99.90
14993;DHT22;7592;51.088;13.732;2024-01-30T21:27:11;3.50;99.90
14993;DHT22;7592;51.088;13.732;2024-01-30T21:32:03;3.50;99.90
14993;DHT22;7592;51.088;13.732;2024-01-30T21:36:57;3.50;99.90
14993;DHT22;7592;51.088;13.732;2024-01-30T21:41:49;3.40;99.90
14993;DHT22;7592;51.088;13.732;2024-01-30T21:46:42;3.50;99.90
14993;DHT22;7592;51.088;13.732;2024-01-30T21:51:34;3.40;99.90
14993;DHT22;7592;51.088;13.732;2024-01-30T21:56:26;3.40;99.90
14993;DHT22;7592;51.088;13.732;2024-01-30T22:01:18;3.30;99.90
14993;DHT22;7592;51.088;13.732;2024-01-30T22:06:10;3.30;99.90
14993;DHT22;7592;51.088;13.732;2024-01-30T22:11:03;3.30;99.90
14993;DHT22;7592;51.088;13.732;2024-01-30T22:15:58;3.20;99.90
14993;DHT22;7592;51.088;13.732;2024-01-30T22:20:50;3.20;99.90
14993;DHT22;7592;51.088;13.732;2024-01-30T22:25:44;3.20;99.90
14993;DHT22;7592;51.088;13.732;2024-01-30T22:30:36;3.30;99.90
14993;DHT22;7592;51.088;13.732;2024-01-30T22:35:28;3.20;99.90
14993;DHT22;7592;51.088;13.732;2024-01-30T22:40:20;3.20;99.90
14993;DHT22;7592;51.088;13.732;2024-01-30T22:45:14;3.20;99.90
14993;DHT22;7592;51.088;13.732;2024-01-30T22:50:06;3.20;99.90
14993;DHT22;7592;51.088;13.732;2024-01-30T22:54:58;3.20;99.90
14993;DHT22;7592;51.088;13.732;2024-01-30T22:59:51;3.20;99.90
14993;DHT22;7592;51.088;13.732;2024-01-30T23:04:45;3.20;99.90
14993;DHT22;7592;51.088;13.732;2024-01-30T23:09:38;3.20;99.90
14993;DHT22;7592;51.088;13.732;2024-01-30T23:14:33;3.20;99.90
14993;DHT22;7592;51.088;13.732;2024-01-30T23:19:26;3.30;99.90
14993;DHT22;7592;51.088;13.732;2024-01-30T23:24:18;3.30;99.90
14993;DHT22;7592;51.088;13.732;2024-01-30T23:29:10;3.30;99.90
14993;DHT22;7592;51.088;13.732;2024-01-30T23:34:02;3.30;99.90
14993;DHT22;7592;51.088;13.732;2024-01-30T23:38:54;3.30;99.90
14993;DHT22;7592;51.088;13.732;2024-01-30T23:43:46;3.40;99.90
14993;DHT22;7592;51.088;13.732;2024-01-30T23:48:39;3.40;99.90
14993;DHT22;7592;51.088;13.732;2024-01-30T23:53:31;3.60;99.90
14993;DHT22;7592;51.088;13.732;2024-01-30T23:58:23;3.60;99.90
